Weather at Hong Kong International Airport

Public forecast

Using degrees Celsius for public forecast. Weather courtesy of forecast.io.

Current aviation weather report (METAR) for Hong Kong International Airport

Retrieved 2021/09/25 19:30 UTC (1 hour ago):

VHHH 251930Z 05007KT 9999 FEW020 29/23 Q1011 NOSIG

Aviation forecast (TAF) for Hong Kong International Airport

Retrieved 2021/09/25 18:00 UTC (3 hours ago):

TAF VHHH 251700Z 2518/2624 10010KT 9999 FEW020 TX32/2606Z TN27/2522Z TN28/2622Z TEMPO 2521/2603 3000 TSRA SHRA FEW010CB SCT020